Commodore Goodwill — C6NU8 — position and weather

sailwx.info

Track history (hours):
 
Tides and Currents Weather Stations Pressure Air Temp Water Temp Dewpoint Dewpoint Depression Visibility Wind Speed Wind Dir Waves Ship Positions

Commodore Goodwill

Operator: Condor Marine Services

Last reported at 2017-Mar-24 19:33 UTC. Time now 2017-Mar-24 20:02 UTC.
Position N 50°49' W 001°07'.

Length 126 m; draft 5.2 m.

Type: Ship (hazmat cat C). MMSI: 309536000.

Date/timePositionNaut miles runAvg speedWind from/ knotsBaromVisibWave heightAir tempDewpointWater temp
2017-Mar-24 19:33N 50°49' W 001°07'1 0.6
2017-Mar-24 18:33N 50°49' W 001°06'0 0.0
2017-Mar-24 17:33N 50°49' W 001°06'0 0.2
2017-Mar-24 16:33N 50°49' W 001°06'1211.7
2017-Mar-24 15:33N 50°37' W 001°04'4317.2
2017-Mar-24 13:05N 50°02' W 001°43'815.6
2017-Mar-24 12:34N 49°56' W 001°50'8 0.7
2017-Mar-24 00:33N 49°49' W 001°57'1514.8
2017-Mar-23 23:33N 50°01' W 001°44'1514.7
2017-Mar-23 22:33N 50°13' W 001°31'2015.1
2017-Mar-23 21:12N 50°31' W 001°15'914.2
2017-Mar-23 20:33N 50°38' W 001°06'1110.6
2017-Mar-23 19:34N 50°49' W 001°06'0 0.1
2017-Mar-23 18:33N 50°49' W 001°06'0 0.0
2017-Mar-23 17:34N 50°49' W 001°06'0 0.0
2017-Mar-23 16:33N 50°49' W 001°06'8 8.1
2017-Mar-23 15:33N 50°41' W 001°03'3916.6
2017-Mar-23 13:13N 50°08' W 001°37'1116.3
2017-Mar-23 12:33N 49°60' W 001°46'15 1.2
2017-Mar-23 00:30N 49°48' W 002°01'1515.4
2017-Mar-22 23:33N 49°58' W 001°45'4915.9
2017-Mar-22 20:29N 50°40' W 001°05'9 9.9
2017-Mar-22 19:34N 50°49' W 001°06'0 0.0
2017-Mar-22 18:34N 50°49' W 001°06'0 0.0
2017-Mar-22 17:33N 50°49' W 001°06'0 0.0
2017-Mar-22 16:34N 50°49' W 001°06'8 8.0
2017-Mar-22 15:33N 50°41' W 001°03'3616.2
2017-Mar-22 13:20N 50°11' W 001°33'1114.3
2017-Mar-22 12:33N 50°02' W 001°44'1414.4
2017-Mar-22 11:33N 49°50' W 001°57'3 0.3
2017-Mar-22 00:28N 49°48' W 001°59'1314.2
2017-Mar-21 23:33N 49°58' W 001°47'1615.4
2017-Mar-21 22:33N 50°11' W 001°35'2315.8
2017-Mar-21 21:06N 50°30' W 001°15'915.4
2017-Mar-21 20:33N 50°37' W 001°07'1211.6
2017-Mar-21 19:33N 50°49' W 001°06'0 0.1
2017-Mar-21 18:33N 50°49' W 001°06'0 0.0
2017-Mar-21 17:33N 50°49' W 001°06'0 0.0
2017-Mar-21 16:33N 50°49' W 001°06'8 7.9
2017-Mar-21 15:34N 50°41' W 001°03'3514.6
2017-Mar-21 13:10N 50°11' W 001°32'914.9
2017-Mar-21 12:33N 50°04' W 001°41'1514.7
2017-Mar-21 11:33N 49°52' W 001°54'6 0.6
2017-Mar-21 00:33N 49°47' W 001°60'1514.7
2017-Mar-20 23:34N 49°59' W 001°46'1515.2
2017-Mar-20 22:33N 50°12' W 001°33'3315.7
2017-Mar-20 20:29N 50°38' W 001°02'1111.9
2017-Mar-20 19:33N 50°48' W 001°07'1 0.9
2017-Mar-20 18:33N 50°49' W 001°06'0 0.0
2017-Mar-20 17:33N 50°49' W 001°06'0 0.0
2017-Mar-20 16:34N 50°49' W 001°06'8 8.0
2017-Mar-20 15:33N 50°41' W 001°03'4414.5
2017-Mar-20 12:34N 50°05' W 001°41'1515.0
2017-Mar-20 11:33N 49°52' W 001°54'6 0.6
2017-Mar-20 00:15N 49°47' W 002°00'811.4
2017-Mar-19 23:34N 49°54' W 001°53'1212.2
2017-Mar-19 22:33N 50°04' W 001°43'3314.9
2017-Mar-19 20:22N 50°31' W 001°14'1416.7
2017-Mar-19 19:33N 50°42' W 001°03'7 6.7
2017-Mar-19 18:33N 50°49' W 001°06'0 0.0
2017-Mar-19 17:33N 50°49' W 001°06'0 0.0
2017-Mar-19 16:33N 50°49' W 001°06'0 0.0
2017-Mar-19 15:33N 50°49' W 001°06'0 0.0
2017-Mar-19 14:33N 50°49' W 001°06'0 0.0
2017-Mar-19 13:33N 50°49' W 001°06'0 0.0
2017-Mar-19 12:33N 50°49' W 001°06'0 0.0
2017-Mar-19 11:33N 50°49' W 001°06'0 0.0
2017-Mar-19 10:33N 50°49' W 001°06'0 0.0
2017-Mar-19 09:33N 50°49' W 001°06'0 0.0
2017-Mar-19 08:33N 50°49' W 001°06'0 0.0
2017-Mar-19 07:33N 50°49' W 001°06'1 1.5
2017-Mar-19 06:33N 50°47' W 001°07'1211.5
2017-Mar-19 05:33N 50°36' W 001°09'3812.3
2017-Mar-19 02:28N 50°04' W 001°41'1313.9
2017-Mar-19 01:33N 49°54' W 001°53'44 2.3
2017-Mar-18 06:18N 49°11' W 002°07'37 7.3
2017-Mar-18 01:15N 49°47' W 001°60'1014.4
2017-Mar-18 00:33N 49°56' W 001°54'1212.2
2017-Mar-17 23:33N 50°05' W 001°40'4013.1
2017-Mar-17 20:33N 50°37' W 001°04'1211.8
2017-Mar-17 19:34N 50°49' W 001°06'1 0.5
2017-Mar-17 18:33N 50°49' W 001°06'0 0.0
2017-Mar-17 17:33N 50°49' W 001°06'0 0.0
2017-Mar-17 16:33N 50°49' W 001°06'8 8.1
2017-Mar-17 15:34N 50°41' W 001°03'4113.6
2017-Mar-17 12:33N 50°07' W 001°39'1514.6
2017-Mar-17 11:33N 49°55' W 001°51'4 0.4
2017-Mar-17 00:33N 49°52' W 001°56'1515.4
2017-Mar-16 23:33N 50°04' W 001°43'4515.0
2017-Mar-16 20:33N 50°40' W 001°00'9 8.9
2017-Mar-16 19:34N 50°49' W 001°06'0 0.0
2017-Mar-16 18:33N 50°49' W 001°06'0 0.0
2017-Mar-16 17:33N 50°49' W 001°06'0 0.0
2017-Mar-16 16:33N 50°49' W 001°06'8 8.2
2017-Mar-16 15:34N 50°41' W 001°03'3514.3
2017-Mar-16 13:07N 50°12' W 001°34'1017.3
2017-Mar-16 12:33N 50°04' W 001°42'1615.7
2017-Mar-16 11:33N 49°51' W 001°55'41 7.8
2017-Mar-16 06:15N 49°10' W 002°08'1216.6
2017-Mar-16 05:32N 49°17' W 002°23'12 5.6
2017-Mar-16 03:24N 49°27' W 002°31'2813.4
2017-Mar-16 01:18N 49°48' W 002°01'1014.0
2017-Mar-16 00:34N 49°56' W 001°53'1313.4
2017-Mar-15 23:33N 50°07' W 001°40'1313.3
2017-Mar-15 22:33N 50°16' W 001°25'1913.1
2017-Mar-15 21:08N 50°32' W 001°09'812.7
2017-Mar-15 20:30N 50°39' W 001°02'1010.7
2017-Mar-15 19:33N 50°48' W 001°07'1 0.8
2017-Mar-15 18:34N 50°49' W 001°06'0 0.0
2017-Mar-15 17:34N 50°49' W 001°06'0 0.0
2017-Mar-15 16:34N 50°49' W 001°06'6 5.7
2017-Mar-15 15:33N 50°43' W 001°03'4413.2
2017-Mar-15 12:12N 50°06' W 001°39'1117.2
2017-Mar-15 11:34N 49°57' W 001°49'1917.7
2017-Mar-15 10:31N 49°40' W 002°01'2017.5
2017-Mar-15 09:22N 49°23' W 002°18'1413.4
2017-Mar-15 08:20N 49°10' W 002°10'43 5.5
2017-Mar-15 00:33N 49°52' W 001°57'1515.4
2017-Mar-14 23:33N 50°04' W 001°42'1515.0
2017-Mar-14 22:33N 50°16' W 001°28'2912.5
2017-Mar-14 20:14N 50°40' W 001°04'812.3
2017-Mar-14 19:33N 50°48' W 001°07'  
Track history (hours):
 
Tides and Currents Weather Stations Pressure Air Temp Water Temp Dewpoint Dewpoint Depression Visibility Wind Speed Wind Dir Waves Ship Positions

Commodore Goodwill

Operator: Condor Marine Services

Last reported at 2017-Mar-24 19:33 UTC. Time now 2017-Mar-24 20:02 UTC.
Position N 50°49' W 001°07'.

Length 126 m; draft 5.2 m.

Type: Ship (hazmat cat C). MMSI: 309536000.

Date/timePositionNaut miles runAvg speedWind from/ knotsBaromVisibWave heightAir tempDewpointWater temp
2017-Mar-24 19:33N 50°49' W 001°07'1 0.6
2017-Mar-24 18:33N 50°49' W 001°06'0 0.0
2017-Mar-24 17:33N 50°49' W 001°06'0 0.2
2017-Mar-24 16:33N 50°49' W 001°06'1211.7
2017-Mar-24 15:33N 50°37' W 001°04'4317.2
2017-Mar-24 13:05N 50°02' W 001°43'815.6
2017-Mar-24 12:34N 49°56' W 001°50'8 0.7
2017-Mar-24 00:33N 49°49' W 001°57'1514.8
2017-Mar-23 23:33N 50°01' W 001°44'1514.7
2017-Mar-23 22:33N 50°13' W 001°31'2015.1
2017-Mar-23 21:12N 50°31' W 001°15'914.2
2017-Mar-23 20:33N 50°38' W 001°06'1110.6
2017-Mar-23 19:34N 50°49' W 001°06'0 0.1
2017-Mar-23 18:33N 50°49' W 001°06'0 0.0
2017-Mar-23 17:34N 50°49' W 001°06'0 0.0
2017-Mar-23 16:33N 50°49' W 001°06'8 8.1
2017-Mar-23 15:33N 50°41' W 001°03'3916.6
2017-Mar-23 13:13N 50°08' W 001°37'1116.3
2017-Mar-23 12:33N 49°60' W 001°46'15 1.2
2017-Mar-23 00:30N 49°48' W 002°01'1515.4
2017-Mar-22 23:33N 49°58' W 001°45'4915.9
2017-Mar-22 20:29N 50°40' W 001°05'9 9.9
2017-Mar-22 19:34N 50°49' W 001°06'0 0.0
2017-Mar-22 18:34N 50°49' W 001°06'0 0.0
2017-Mar-22 17:33N 50°49' W 001°06'0 0.0
2017-Mar-22 16:34N 50°49' W 001°06'8 8.0
2017-Mar-22 15:33N 50°41' W 001°03'3616.2
2017-Mar-22 13:20N 50°11' W 001°33'1114.3
2017-Mar-22 12:33N 50°02' W 001°44'1414.4
2017-Mar-22 11:33N 49°50' W 001°57'3 0.3
2017-Mar-22 00:28N 49°48' W 001°59'1314.2
2017-Mar-21 23:33N 49°58' W 001°47'1615.4
2017-Mar-21 22:33N 50°11' W 001°35'2315.8
2017-Mar-21 21:06N 50°30' W 001°15'915.4
2017-Mar-21 20:33N 50°37' W 001°07'1211.6
2017-Mar-21 19:33N 50°49' W 001°06'0 0.1
2017-Mar-21 18:33N 50°49' W 001°06'0 0.0
2017-Mar-21 17:33N 50°49' W 001°06'0 0.0
2017-Mar-21 16:33N 50°49' W 001°06'8 7.9
2017-Mar-21 15:34N 50°41' W 001°03'3514.6
2017-Mar-21 13:10N 50°11' W 001°32'914.9
2017-Mar-21 12:33N 50°04' W 001°41'1514.7
2017-Mar-21 11:33N 49°52' W 001°54'6 0.6
2017-Mar-21 00:33N 49°47' W 001°60'1514.7
2017-Mar-20 23:34N 49°59' W 001°46'1515.2
2017-Mar-20 22:33N 50°12' W 001°33'3315.7
2017-Mar-20 20:29N 50°38' W 001°02'1111.9
2017-Mar-20 19:33N 50°48' W 001°07'1 0.9
2017-Mar-20 18:33N 50°49' W 001°06'0 0.0
2017-Mar-20 17:33N 50°49' W 001°06'0 0.0
2017-Mar-20 16:34N 50°49' W 001°06'8 8.0
2017-Mar-20 15:33N 50°41' W 001°03'4414.5
2017-Mar-20 12:34N 50°05' W 001°41'1515.0
2017-Mar-20 11:33N 49°52' W 001°54'6 0.6
2017-Mar-20 00:15N 49°47' W 002°00'811.4
2017-Mar-19 23:34N 49°54' W 001°53'1212.2
2017-Mar-19 22:33N 50°04' W 001°43'3314.9
2017-Mar-19 20:22N 50°31' W 001°14'1416.7
2017-Mar-19 19:33N 50°42' W 001°03'7 6.7
2017-Mar-19 18:33N 50°49' W 001°06'0 0.0
2017-Mar-19 17:33N 50°49' W 001°06'0 0.0
2017-Mar-19 16:33N 50°49' W 001°06'0 0.0
2017-Mar-19 15:33N 50°49' W 001°06'0 0.0
2017-Mar-19 14:33N 50°49' W 001°06'0 0.0
2017-Mar-19 13:33N 50°49' W 001°06'0 0.0
2017-Mar-19 12:33N 50°49' W 001°06'0 0.0
2017-Mar-19 11:33N 50°49' W 001°06'0 0.0
2017-Mar-19 10:33N 50°49' W 001°06'0 0.0
2017-Mar-19 09:33N 50°49' W 001°06'0 0.0
2017-Mar-19 08:33N 50°49' W 001°06'0 0.0
2017-Mar-19 07:33N 50°49' W 001°06'1 1.5
2017-Mar-19 06:33N 50°47' W 001°07'1211.5
2017-Mar-19 05:33N 50°36' W 001°09'3812.3
2017-Mar-19 02:28N 50°04' W 001°41'1313.9
2017-Mar-19 01:33N 49°54' W 001°53'44 2.3
2017-Mar-18 06:18N 49°11' W 002°07'37 7.3
2017-Mar-18 01:15N 49°47' W 001°60'1014.4
2017-Mar-18 00:33N 49°56' W 001°54'1212.2
2017-Mar-17 23:33N 50°05' W 001°40'4013.1
2017-Mar-17 20:33N 50°37' W 001°04'1211.8
2017-Mar-17 19:34N 50°49' W 001°06'1 0.5
2017-Mar-17 18:33N 50°49' W 001°06'0 0.0
2017-Mar-17 17:33N 50°49' W 001°06'0 0.0
2017-Mar-17 16:33N 50°49' W 001°06'8 8.1
2017-Mar-17 15:34N 50°41' W 001°03'4113.6
2017-Mar-17 12:33N 50°07' W 001°39'1514.6
2017-Mar-17 11:33N 49°55' W 001°51'4 0.4
2017-Mar-17 00:33N 49°52' W 001°56'1515.4
2017-Mar-16 23:33N 50°04' W 001°43'4515.0
2017-Mar-16 20:33N 50°40' W 001°00'9 8.9
2017-Mar-16 19:34N 50°49' W 001°06'0 0.0
2017-Mar-16 18:33N 50°49' W 001°06'0 0.0
2017-Mar-16 17:33N 50°49' W 001°06'0 0.0
2017-Mar-16 16:33N 50°49' W 001°06'8 8.2
2017-Mar-16 15:34N 50°41' W 001°03'3514.3
2017-Mar-16 13:07N 50°12' W 001°34'1017.3
2017-Mar-16 12:33N 50°04' W 001°42'1615.7
2017-Mar-16 11:33N 49°51' W 001°55'41 7.8
2017-Mar-16 06:15N 49°10' W 002°08'1216.6
2017-Mar-16 05:32N 49°17' W 002°23'12 5.6
2017-Mar-16 03:24N 49°27' W 002°31'2813.4
2017-Mar-16 01:18N 49°48' W 002°01'1014.0
2017-Mar-16 00:34N 49°56' W 001°53'1313.4
2017-Mar-15 23:33N 50°07' W 001°40'1313.3
2017-Mar-15 22:33N 50°16' W 001°25'1913.1
2017-Mar-15 21:08N 50°32' W 001°09'812.7
2017-Mar-15 20:30N 50°39' W 001°02'1010.7
2017-Mar-15 19:33N 50°48' W 001°07'1 0.8
2017-Mar-15 18:34N 50°49' W 001°06'0 0.0
2017-Mar-15 17:34N 50°49' W 001°06'0 0.0
2017-Mar-15 16:34N 50°49' W 001°06'6 5.7
2017-Mar-15 15:33N 50°43' W 001°03'4413.2
2017-Mar-15 12:12N 50°06' W 001°39'1117.2
2017-Mar-15 11:34N 49°57' W 001°49'1917.7
2017-Mar-15 10:31N 49°40' W 002°01'2017.5
2017-Mar-15 09:22N 49°23' W 002°18'1413.4
2017-Mar-15 08:20N 49°10' W 002°10'43 5.5
2017-Mar-15 00:33N 49°52' W 001°57'1515.4
2017-Mar-14 23:33N 50°04' W 001°42'1515.0
2017-Mar-14 22:33N 50°16' W 001°28'2912.5
2017-Mar-14 20:14N 50°40' W 001°04'812.3
2017-Mar-14 19:33N 50°48' W 001°07'  

Dump ship's entire track history